createdAt,value
2023-01-25T00:00:25.940Z,25.43
2023-01-25T00:01:25.902Z,25.42
2023-01-25T00:02:26.278Z,25.41
2023-01-25T00:03:25.882Z,25.43
2023-01-25T00:04:25.791Z,25.45
2023-01-25T00:05:25.731Z,25.43
2023-01-25T00:06:25.684Z,25.46
2023-01-25T00:07:25.680Z,25.46
2023-01-25T00:08:25.622Z,25.46
2023-01-25T00:09:25.577Z,25.46
2023-01-25T00:10:25.525Z,25.46
2023-01-25T00:11:25.497Z,25.43
2023-01-25T00:12:25.471Z,25.42
2023-01-25T00:13:25.405Z,25.44
2023-01-25T00:14:25.363Z,25.47
2023-01-25T00:15:25.328Z,25.48
2023-01-25T00:16:25.373Z,25.47
2023-01-25T00:17:25.250Z,25.46
2023-01-25T00:18:25.234Z,25.49
2023-01-25T00:19:25.169Z,25.47
2023-01-25T00:20:25.116Z,25.47
2023-01-25T00:21:25.078Z,25.50
2023-01-25T00:22:25.031Z,25.51
2023-01-25T03:03:18.539Z,21.10
2023-01-25T03:04:18.490Z,20.87
2023-01-25T03:05:18.483Z,20.96
2023-01-25T03:06:18.440Z,20.90
2023-01-25T03:07:18.409Z,20.85
2023-01-25T03:08:18.369Z,20.56
2023-01-25T03:09:18.369Z,20.31
2023-01-25T03:10:18.287Z,20.18
2023-01-25T03:11:18.257Z,20.12
2023-01-25T03:12:18.224Z,20.06
2023-01-25T03:13:18.208Z,20.13
2023-01-25T03:14:18.166Z,19.84
2023-01-25T03:15:18.118Z,19.88
2023-01-25T03:16:18.138Z,19.64
2023-01-25T03:17:18.048Z,19.66
2023-01-25T03:18:18.019Z,19.57
2023-01-25T03:19:17.994Z,19.57
2023-01-25T03:20:17.954Z,19.59
2023-01-25T03:21:17.919Z,19.43
2023-01-25T03:22:17.874Z,19.53
2023-01-25T03:23:17.855Z,19.39
2023-01-25T03:24:17.908Z,19.26
2023-01-25T03:25:17.780Z,19.04
2023-01-25T03:26:17.766Z,19.14
2023-01-25T03:27:17.719Z,19.03
2023-01-25T03:28:17.681Z,19.20
2023-01-25T03:29:17.661Z,19.06
2023-01-25T03:30:17.618Z,18.97
2023-01-25T03:31:17.785Z,18.82
2023-01-25T03:32:17.578Z,18.70
2023-01-25T03:33:17.516Z,18.77
2023-01-25T03:34:17.519Z,18.72
2023-01-25T03:35:17.469Z,18.86
2023-01-25T03:36:17.463Z,18.75
2023-01-25T03:37:17.393Z,18.64
2023-01-25T03:38:17.360Z,18.46
2023-01-25T03:39:17.320Z,18.48
2023-01-25T03:40:17.308Z,18.49
2023-01-25T03:41:17.274Z,18.58
2023-01-25T03:42:17.225Z,18.55
2023-01-25T03:43:17.207Z,18.51
2023-01-25T03:44:17.177Z,18.36
2023-01-25T03:45:17.149Z,18.21
2023-01-25T03:46:17.111Z,18.27
2023-01-25T03:47:17.177Z,18.24
2023-01-25T03:48:17.048Z,18.19
2023-01-25T03:49:17.029Z,18.27
2023-01-25T03:50:16.984Z,18.19
2023-01-25T03:51:16.947Z,18.07
2023-01-25T03:52:16.903Z,17.93
2023-01-25T03:53:16.877Z,17.98
2023-01-25T03:54:16.835Z,18.02
2023-01-25T03:55:16.796Z,18.09
2023-01-25T03:56:16.789Z,18.02
2023-01-25T03:57:16.745Z,17.98
2023-01-25T03:58:16.733Z,18.01
2023-01-25T03:59:16.685Z,17.82
2023-01-25T04:00:16.666Z,17.75
2023-01-25T04:01:16.659Z,17.85
2023-01-25T04:02:16.630Z,17.83
2023-01-25T04:03:16.535Z,17.91
2023-01-25T04:04:16.497Z,17.87
2023-01-25T04:05:16.486Z,17.78
2023-01-25T04:06:16.436Z,17.69
2023-01-25T04:07:16.419Z,17.73
2023-01-25T04:08:16.365Z,17.67
2023-01-25T04:09:16.328Z,17.67
2023-01-25T04:10:16.300Z,17.74
2023-01-25T04:11:16.311Z,17.69
2023-01-25T04:12:16.233Z,17.65
2023-01-25T04:13:16.223Z,17.56
2023-01-25T04:14:16.171Z,17.60
2023-01-25T04:15:16.136Z,17.60
2023-01-25T04:16:16.156Z,17.57
2023-01-25T04:17:16.073Z,17.71
2023-01-25T04:18:16.040Z,17.62
2023-01-25T04:19:16.017Z,17.60
2023-01-25T04:20:15.974Z,17.55
2023-01-25T04:21:15.938Z,17.49
2023-01-25T04:22:15.909Z,17.52
2023-01-25T04:23:15.852Z,17.45
2023-01-25T04:24:15.900Z,17.55
2023-01-25T04:25:15.794Z,17.46
2023-01-25T04:26:15.765Z,17.35
2023-01-25T04:27:15.720Z,17.28
2023-01-25T04:28:15.665Z,17.31
2023-01-25T04:29:15.643Z,17.30
2023-01-25T04:30:15.611Z,17.26
2023-01-25T04:31:15.747Z,17.40
2023-01-25T04:32:15.659Z,17.35
2023-01-25T04:33:15.493Z,17.27
2023-01-25T04:34:15.451Z,17.24
2023-01-25T04:35:15.425Z,17.13
2023-01-25T04:36:15.392Z,17.21
2023-01-25T04:37:15.397Z,17.12
2023-01-25T04:38:15.312Z,17.33
2023-01-25T04:39:15.256Z,17.24
2023-01-25T04:40:15.228Z,17.20
2023-01-25T04:41:15.196Z,17.04
2023-01-25T04:42:15.174Z,17.05
2023-01-25T04:43:15.125Z,17.09
2023-01-25T04:44:15.099Z,17.09
2023-01-25T04:45:15.063Z,17.20
2023-01-25T04:46:15.105Z,17.13
2023-01-25T05:58:12.377Z,17.96
2023-01-25T06:07:12.032Z,17.63
2023-01-25T06:08:12.012Z,17.87
2023-01-25T06:09:11.969Z,17.81
2023-01-25T06:10:11.932Z,17.71
2023-01-25T06:11:11.909Z,17.68
2023-01-25T06:12:11.868Z,17.71
2023-01-25T06:13:11.847Z,17.71
2023-01-25T06:14:11.826Z,17.65
2023-01-25T06:15:12.032Z,17.59
2023-01-25T06:16:11.839Z,17.58
2023-01-25T06:17:11.673Z,17.57
2023-01-25T06:18:11.643Z,17.58
2023-01-25T06:19:11.592Z,17.55
2023-01-25T06:20:11.577Z,17.58
2023-01-25T06:21:11.540Z,17.58
2023-01-25T06:22:11.501Z,17.55
2023-01-25T06:23:11.452Z,17.54
2023-01-25T06:24:11.470Z,17.51
2023-01-25T06:25:11.709Z,17.46
2023-01-25T06:26:11.346Z,17.95
2023-01-25T06:27:11.297Z,17.49
2023-01-25T06:28:11.284Z,17.04
2023-01-25T06:29:11.241Z,16.91
2023-01-25T06:30:11.217Z,17.18
2023-01-25T06:31:11.233Z,17.32
2023-01-25T06:32:11.205Z,17.56
2023-01-25T06:33:11.135Z,17.72
2023-01-25T06:34:11.123Z,18.54
2023-01-25T06:35:11.269Z,18.46
2023-01-25T06:36:12.072Z,18.85
2023-01-25T06:37:11.014Z,19.81
2023-01-25T06:38:10.989Z,19.77
2023-01-25T06:39:10.973Z,20.08
2023-01-25T06:40:10.947Z,20.12
2023-01-25T06:41:11.878Z,20.35
2023-01-25T06:42:10.893Z,20.45
2023-01-25T06:43:10.864Z,21.11
2023-01-25T06:44:10.848Z,21.30
2023-01-25T06:45:11.331Z,21.44
2023-01-25T06:46:10.937Z,21.38
2023-01-25T06:47:10.824Z,21.85
2023-01-25T06:48:12.787Z,21.93
2023-01-25T06:49:10.706Z,22.09
2023-01-25T06:50:10.710Z,21.93
2023-01-25T06:51:10.647Z,22.03
2023-01-25T06:52:10.625Z,22.12
2023-01-25T06:53:10.593Z,22.17
2023-01-25T06:54:10.569Z,22.17
2023-01-25T06:55:10.905Z,22.31
2023-01-25T06:56:11.821Z,22.07
2023-01-25T06:57:10.473Z,22.03
2023-01-25T06:58:10.435Z,22.01
2023-01-25T06:59:10.401Z,21.99
2023-01-25T07:00:10.382Z,22.25
2023-01-25T07:01:10.332Z,22.45
2023-01-25T07:02:10.302Z,22.30
2023-01-25T07:03:10.300Z,22.46
2023-01-25T07:04:10.220Z,22.38
2023-01-25T07:05:10.639Z,22.29
2023-01-25T07:06:10.158Z,22.44
2023-01-25T07:07:10.103Z,22.30
2023-01-25T07:08:10.073Z,21.99
2023-01-25T07:09:10.070Z,22.19
2023-01-25T07:10:10.005Z,21.95
2023-01-25T07:11:09.960Z,22.15
2023-01-25T07:12:09.923Z,22.53
2023-01-25T07:13:09.891Z,22.36
2023-01-25T07:14:09.884Z,22.38
2023-01-25T07:15:10.384Z,22.26
2023-01-25T07:16:09.779Z,22.30
2023-01-25T07:17:09.746Z,22.53
2023-01-25T07:18:16.133Z,22.50
2023-01-25T07:19:10.671Z,22.46
2023-01-25T07:20:09.625Z,21.96
2023-01-25T07:21:09.599Z,22.04
2023-01-25T07:22:09.546Z,22.14
2023-01-25T07:23:09.518Z,22.43
2023-01-25T07:24:09.547Z,22.52
2023-01-25T07:25:09.812Z,22.56
2023-01-25T07:26:09.557Z,22.52
2023-01-25T07:27:09.613Z,22.40
2023-01-25T07:28:09.334Z,22.47
2023-01-25T07:29:10.541Z,22.35
2023-01-25T07:30:09.244Z,22.30
2023-01-25T07:31:09.258Z,21.97
2023-01-25T07:32:09.168Z,21.99
2023-01-25T07:33:09.122Z,21.96
2023-01-25T07:34:09.077Z,22.18
2023-01-25T07:35:09.386Z,22.37
2023-01-25T07:36:09.013Z,22.11
2023-01-25T07:37:08.962Z,21.94
2023-01-25T07:38:08.952Z,21.91
2023-01-25T07:39:08.894Z,21.97
2023-01-25T07:40:08.840Z,22.08
2023-01-25T07:41:08.808Z,21.48
2023-01-25T07:42:08.821Z,21.92
2023-01-25T07:43:08.715Z,21.95
2023-01-25T07:44:08.686Z,22.32
2023-01-25T07:45:08.968Z,22.99
2023-01-25T07:46:08.602Z,22.37
2023-01-25T07:47:08.534Z,22.32
2023-01-25T07:48:08.508Z,21.99
2023-01-25T07:49:08.509Z,22.39
2023-01-25T07:50:08.936Z,22.27
2023-01-25T07:51:08.398Z,22.09
2023-01-25T07:52:08.381Z,22.01
2023-01-25T07:53:08.318Z,21.90
2023-01-25T07:54:08.547Z,21.88
2023-01-25T07:55:09.031Z,22.04
2023-01-25T07:56:08.222Z,22.08
2023-01-25T07:57:08.195Z,21.89
2023-01-25T07:58:08.139Z,21.76
2023-01-25T07:59:08.115Z,21.54
2023-01-25T08:00:08.495Z,21.56
2023-01-25T08:01:08.077Z,21.71
2023-01-25T08:02:08.096Z,21.48
2023-01-25T08:03:08.013Z,21.69
2023-01-25T08:04:08.000Z,21.42
2023-01-25T08:05:08.305Z,21.51
2023-01-25T08:06:07.912Z,21.37
2023-01-25T08:07:07.821Z,21.53
2023-01-25T08:08:07.803Z,21.36
2023-01-25T08:09:07.763Z,21.58
2023-01-25T08:10:07.729Z,21.39
2023-01-25T08:11:07.704Z,21.53
2023-01-25T08:12:08.748Z,21.43
2023-01-25T08:13:07.626Z,21.29
2023-01-25T08:14:07.558Z,21.26
2023-01-25T08:15:07.927Z,21.27
2023-01-25T08:16:07.510Z,21.41
2023-01-25T08:17:08.171Z,21.32
2023-01-25T08:18:07.410Z,21.10
2023-01-25T08:19:07.371Z,21.08
2023-01-25T08:20:07.410Z,21.28
2023-01-25T08:21:07.847Z,21.11
2023-01-25T08:22:07.270Z,21.33
2023-01-25T08:23:07.245Z,21.43
2023-01-25T08:24:41.940Z,21.15
2023-01-25T08:25:07.424Z,21.34
2023-01-25T08:26:07.245Z,21.21
2023-01-25T08:27:07.094Z,21.14
2023-01-25T08:28:07.043Z,21.26
2023-01-25T08:29:07.100Z,21.19
2023-01-25T08:30:06.992Z,21.40
2023-01-25T08:31:06.928Z,21.52
2023-01-25T08:32:06.909Z,21.36
2023-01-25T08:33:06.834Z,21.23
2023-01-25T08:34:06.813Z,21.32
2023-01-25T08:35:07.014Z,20.65
2023-01-25T08:36:06.732Z,20.66
2023-01-25T08:37:06.705Z,20.76
2023-01-25T08:38:06.650Z,20.80
2023-01-25T08:39:06.644Z,21.14
2023-01-25T08:40:06.706Z,21.44
2023-01-25T08:41:06.574Z,21.76
2023-01-25T08:42:06.511Z,21.88
2023-01-25T08:43:08.096Z,21.78
2023-01-25T08:44:06.554Z,21.88
2023-01-25T08:45:06.507Z,21.97
2023-01-25T08:46:06.409Z,22.03
2023-01-25T08:47:06.355Z,21.98
2023-01-25T08:48:06.787Z,22.08
2023-01-25T08:49:06.278Z,22.20
2023-01-25T08:50:06.314Z,22.14
2023-01-25T08:51:06.188Z,22.09
2023-01-25T08:52:06.112Z,22.20
2023-01-25T08:53:06.091Z,22.21
2023-01-25T08:54:06.053Z,22.18
2023-01-25T08:55:07.050Z,22.18
2023-01-25T08:56:05.986Z,22.24
2023-01-25T08:57:06.046Z,22.47
2023-01-25T08:58:05.900Z,22.48
2023-01-25T08:59:05.905Z,22.53
2023-01-25T09:00:05.820Z,22.54
2023-01-25T09:01:05.814Z,22.56
2023-01-25T09:02:06.076Z,22.64
2023-01-25T09:03:05.701Z,22.66
2023-01-25T09:04:05.737Z,22.71
2023-01-25T09:05:05.592Z,22.64
2023-01-25T09:06:05.555Z,22.66
2023-01-25T09:07:05.496Z,22.68
2023-01-25T09:08:06.853Z,22.70
2023-01-25T09:09:05.445Z,22.61
2023-01-25T09:10:05.358Z,22.66
2023-01-25T09:11:05.358Z,22.72
2023-01-25T09:12:05.304Z,22.78
2023-01-25T09:13:07.689Z,22.72
2023-01-25T09:14:05.206Z,22.78
2023-01-25T09:15:05.201Z,22.84
2023-01-25T09:16:05.125Z,22.82
2023-01-25T09:17:05.146Z,22.76
2023-01-25T09:18:05.032Z,22.74
2023-01-25T09:19:04.987Z,22.66
2023-01-25T09:20:04.946Z,22.59
2023-01-25T09:21:04.901Z,22.64
2023-01-25T09:22:04.842Z,22.76
2023-01-25T09:23:04.816Z,22.90
2023-01-25T09:24:06.574Z,22.96
2023-01-25T09:25:04.919Z,22.97
2023-01-25T09:26:04.802Z,22.98
2023-01-25T09:27:04.816Z,23.01
2023-01-25T09:28:04.738Z,22.99
2023-01-25T09:29:04.681Z,23.02
2023-01-25T09:30:08.637Z,22.95
2023-01-25T09:31:20.565Z,23.11
2023-01-25T09:32:05.623Z,22.74
2023-01-25T09:33:04.523Z,22.85
2023-01-25T09:34:04.494Z,22.66
2023-01-25T09:35:04.447Z,22.55
2023-01-25T09:36:04.380Z,22.20
2023-01-25T09:37:04.357Z,22.14
2023-01-25T09:38:04.325Z,22.03
2023-01-25T09:39:04.263Z,21.50
2023-01-25T09:40:04.240Z,21.52
2023-01-25T09:41:04.199Z,21.61
2023-01-25T09:42:14.070Z,21.76
2023-01-25T09:43:04.097Z,21.60
2023-01-25T09:44:14.167Z,21.34
2023-01-25T09:45:05.026Z,21.49
2023-01-25T09:46:03.975Z,21.05
2023-01-25T09:47:03.927Z,21.36
2023-01-25T09:48:03.892Z,21.30
2023-01-25T09:49:07.748Z,21.45
2023-01-25T09:50:03.824Z,21.90
2023-01-25T09:51:03.810Z,22.70
2023-01-25T09:52:03.693Z,22.48
2023-01-25T09:53:03.656Z,22.12
2023-01-25T09:54:03.638Z,18.95
2023-01-25T09:55:03.634Z,17.60
2023-01-25T09:56:03.561Z,17.72
2023-01-25T09:57:03.537Z,18.25
2023-01-25T09:58:03.495Z,18.91
2023-01-25T09:59:03.464Z,19.88
2023-01-25T10:00:04.250Z,19.98
2023-01-25T10:01:05.894Z,19.41
2023-01-25T10:02:04.407Z,18.32
2023-01-25T10:03:03.402Z,18.97
2023-01-25T10:04:03.300Z,19.65
2023-01-25T10:05:03.309Z,20.39
2023-01-25T10:06:03.247Z,19.64
2023-01-25T10:07:03.274Z,19.68
2023-01-25T10:08:03.197Z,19.26
2023-01-25T10:09:03.157Z,19.60
2023-01-25T10:10:03.136Z,19.62
2023-01-25T10:11:03.080Z,19.94
2023-01-25T10:12:03.058Z,19.90
2023-01-25T10:13:03.046Z,19.73
2023-01-25T10:14:02.992Z,19.57
2023-01-25T10:15:02.985Z,19.27
2023-01-25T10:16:02.984Z,19.79
2023-01-25T10:17:03.531Z,19.90
2023-01-25T10:18:02.854Z,19.83
2023-01-25T10:19:02.829Z,19.84
2023-01-25T10:20:02.795Z,19.39
2023-01-25T10:21:02.793Z,19.66
2023-01-25T10:23:50.859Z,19.79
2023-01-25T10:25:50.826Z,19.82
2023-01-25T10:26:50.784Z,20.09
2023-01-25T10:27:50.765Z,19.77
2023-01-25T10:28:50.726Z,19.80
2023-01-25T10:29:50.701Z,19.88
2023-01-25T10:30:50.702Z,20.16
2023-01-25T10:31:50.794Z,20.32
2023-01-25T10:32:55.868Z,20.19
2023-01-25T10:33:51.648Z,20.39
2023-01-25T10:34:56.785Z,20.22
2023-01-25T10:35:51.910Z,20.08
2023-01-25T10:36:50.512Z,20.15
2023-01-25T10:37:50.514Z,20.36
2023-01-25T10:38:50.513Z,22.01
2023-01-25T10:39:50.483Z,22.26
2023-01-25T10:40:50.436Z,22.74
2023-01-25T10:41:50.407Z,22.46
2023-01-25T10:42:50.385Z,22.75
2023-01-25T10:43:50.420Z,22.93
2023-01-25T10:44:50.416Z,22.90
2023-01-25T10:45:50.312Z,22.92
2023-01-25T10:46:50.323Z,22.62
2023-01-25T10:47:50.277Z,22.22
2023-01-25T10:48:50.217Z,22.09
2023-01-25T10:49:50.199Z,21.78
2023-01-25T10:50:50.187Z,21.51
2023-01-25T10:51:50.127Z,21.49
2023-01-25T10:52:50.115Z,21.36
2023-01-25T10:53:50.064Z,21.26
2023-01-25T10:54:50.045Z,21.07
2023-01-25T10:55:50.046Z,20.97
2023-01-25T10:56:49.979Z,20.75
2023-01-25T10:57:49.969Z,20.70
2023-01-25T10:58:49.950Z,20.53
2023-01-25T10:59:49.897Z,20.35
2023-01-25T11:00:49.865Z,20.32
2023-01-25T11:01:49.903Z,20.25
2023-01-25T11:02:49.916Z,20.15
2023-01-25T11:03:49.853Z,20.13
2023-01-25T11:04:49.769Z,20.07
2023-01-25T11:05:49.743Z,20.03
2023-01-25T11:06:49.665Z,19.97
2023-01-25T11:07:49.642Z,20.00
2023-01-25T11:08:49.606Z,19.93
2023-01-25T11:09:49.581Z,19.86
2023-01-25T11:10:49.540Z,19.83
2023-01-25T11:11:49.509Z,19.83
2023-01-25T11:12:49.476Z,19.83
2023-01-25T11:13:49.459Z,19.92
2023-01-25T11:14:49.436Z,19.86
2023-01-25T11:15:49.462Z,19.84
2023-01-25T11:16:49.375Z,19.82
2023-01-25T11:17:50.998Z,19.82
2023-01-25T11:18:49.315Z,20.04
2023-01-25T11:19:49.270Z,20.04
2023-01-25T11:20:49.243Z,20.17
2023-01-25T11:21:49.230Z,20.20
2023-01-25T11:22:49.229Z,20.13
2023-01-25T11:23:49.294Z,20.22
2023-01-25T11:24:49.140Z,20.22
2023-01-25T11:25:49.139Z,20.14
2023-01-25T11:26:49.095Z,20.17
2023-01-25T11:27:49.060Z,20.12
2023-01-25T11:28:49.070Z,20.13
2023-01-25T11:29:49.033Z,20.16
2023-01-25T11:30:49.081Z,20.25
2023-01-25T11:31:48.998Z,20.19
2023-01-25T11:32:48.916Z,20.09
2023-01-25T11:33:48.891Z,20.18
2023-01-25T11:34:48.863Z,20.25
2023-01-25T11:35:48.832Z,20.29
2023-01-25T11:36:48.855Z,20.22
2023-01-25T11:37:49.455Z,20.24
2023-01-25T11:38:48.729Z,20.22
2023-01-25T11:39:48.688Z,20.12
2023-01-25T11:40:48.665Z,20.21
2023-01-25T11:41:48.649Z,20.12
2023-01-25T11:42:48.600Z,20.18
2023-01-25T11:43:48.568Z,20.13
2023-01-25T11:44:48.524Z,20.17
2023-01-25T11:45:48.501Z,20.22
2023-01-25T11:46:48.501Z,20.20
2023-01-25T11:47:48.440Z,20.17
2023-01-25T11:48:48.408Z,20.20
2023-01-25T11:49:48.388Z,20.20
2023-01-25T11:50:48.379Z,20.18
2023-01-25T11:51:49.967Z,20.16
2023-01-25T11:52:48.310Z,20.19
2023-01-25T11:53:48.281Z,20.19
2023-01-25T11:54:48.247Z,20.18
2023-01-25T11:55:48.219Z,20.25
2023-01-25T11:56:48.213Z,20.25
2023-01-25T11:57:48.226Z,20.40
2023-01-25T11:58:48.161Z,20.34
2023-01-25T11:59:48.130Z,20.24
2023-01-25T12:00:48.077Z,20.26
2023-01-25T12:01:48.038Z,20.32
2023-01-25T12:02:48.027Z,20.41
2023-01-25T12:03:48.054Z,20.38
2023-01-25T12:04:47.955Z,20.39
2023-01-25T12:05:47.951Z,20.29
2023-01-25T12:06:47.917Z,20.35
2023-01-25T12:07:47.847Z,20.39
2023-01-25T12:08:47.823Z,20.34
2023-01-25T12:09:47.840Z,20.31
2023-01-25T12:10:47.735Z,20.31
2023-01-25T12:11:47.699Z,20.36
2023-01-25T12:12:47.678Z,20.43
2023-01-25T12:13:47.659Z,20.38
2023-01-25T12:14:47.605Z,20.40
2023-01-25T12:15:47.620Z,20.40
2023-01-25T12:16:47.548Z,20.35
2023-01-25T12:17:47.495Z,20.31
2023-01-25T12:18:47.467Z,20.30
2023-01-25T12:19:47.437Z,20.30
2023-01-25T12:20:47.407Z,20.34
2023-01-25T12:21:47.399Z,20.36
2023-01-25T12:22:47.354Z,20.45
2023-01-25T12:23:47.381Z,20.35
2023-01-25T12:24:47.301Z,20.35
2023-01-25T12:25:47.254Z,20.37
2023-01-25T12:26:47.273Z,20.44
2023-01-25T12:27:47.251Z,20.39
2023-01-25T12:28:47.184Z,20.39
2023-01-25T12:29:47.139Z,20.42
2023-01-25T12:30:47.155Z,20.39
2023-01-25T12:31:47.122Z,20.40
2023-01-25T12:32:47.071Z,20.40
2023-01-25T12:33:47.019Z,20.42
2023-01-25T12:34:47.006Z,20.39
2023-01-25T12:35:46.988Z,20.38
2023-01-25T12:36:46.987Z,20.42
2023-01-25T12:37:46.911Z,20.39
2023-01-25T12:38:46.884Z,20.39
2023-01-25T12:39:46.898Z,20.40
2023-01-25T12:40:46.824Z,20.46
2023-01-25T12:41:46.823Z,20.41
2023-01-25T12:42:46.769Z,20.41
2023-01-25T12:43:46.741Z,20.39
2023-01-25T12:44:46.710Z,20.50
2023-01-25T12:45:46.677Z,20.49
2023-01-25T12:46:46.670Z,20.48
2023-01-25T12:47:46.646Z,20.57
2023-01-25T12:48:46.602Z,20.46
2023-01-25T12:49:46.563Z,20.45
2023-01-25T12:50:46.529Z,20.49
2023-01-25T12:51:46.517Z,20.56
2023-01-25T12:52:46.474Z,20.10
2023-01-25T12:53:46.433Z,19.14
2023-01-25T12:54:46.424Z,18.20
2023-01-25T12:55:46.367Z,17.51
2023-01-25T12:56:46.341Z,17.68
2023-01-25T12:57:46.309Z,17.28
2023-01-25T12:58:46.257Z,17.43
2023-01-25T12:59:46.225Z,17.22
2023-01-25T13:00:46.237Z,17.10
2023-01-25T13:01:46.175Z,17.12
2023-01-25T13:02:46.109Z,16.94
2023-01-25T13:03:46.051Z,16.92
2023-01-25T13:04:46.011Z,16.92
2023-01-25T13:05:45.977Z,16.97
2023-01-25T13:06:45.937Z,17.09
2023-01-25T13:07:45.880Z,17.16
2023-01-25T13:08:47.636Z,17.42
2023-01-25T13:09:45.815Z,17.64
2023-01-25T13:10:45.748Z,17.78
2023-01-25T13:11:45.716Z,17.95
2023-01-25T13:12:45.651Z,18.11
2023-01-25T13:13:45.612Z,18.27
2023-01-25T13:14:45.559Z,18.42
2023-01-25T13:15:45.519Z,18.52
2023-01-25T13:16:45.465Z,18.63
2023-01-25T13:17:45.430Z,18.72
2023-01-25T13:18:45.372Z,18.78
2023-01-25T13:19:45.327Z,18.82
2023-01-25T13:20:45.266Z,18.88
2023-01-25T13:21:45.213Z,18.84
2023-01-25T13:22:45.263Z,18.85
2023-01-25T13:23:45.188Z,18.89
2023-01-25T13:24:45.081Z,18.90
2023-01-25T13:25:45.031Z,18.90
2023-01-25T13:57:43.564Z,20.57
2023-01-25T13:58:43.514Z,20.54
2023-01-25T13:59:43.477Z,21.11
2023-01-25T14:00:43.467Z,20.84
2023-01-25T14:01:43.449Z,21.18
2023-01-25T14:02:44.347Z,20.86
2023-01-25T14:03:43.326Z,20.69
2023-01-25T14:04:43.293Z,20.64
2023-01-25T14:05:43.245Z,20.62
2023-01-25T14:06:43.200Z,20.60
2023-01-25T14:07:43.162Z,20.57
2023-01-25T14:08:43.132Z,20.59
2023-01-25T14:09:43.117Z,20.57
2023-01-25T14:10:43.052Z,20.53
2023-01-25T14:11:43.024Z,20.53
2023-01-25T14:12:43.006Z,20.50
2023-01-25T14:13:42.949Z,20.50
2023-01-25T14:14:42.899Z,20.46
2023-01-25T14:15:43.007Z,20.49
2023-01-25T14:16:42.853Z,20.47
2023-01-25T14:17:42.764Z,20.49
2023-01-25T14:18:42.737Z,20.47
2023-01-25T14:19:42.714Z,20.43
2023-01-25T14:20:42.659Z,20.47
2023-01-25T14:21:42.593Z,20.45
2023-01-25T14:22:42.557Z,20.41
2023-01-25T14:23:42.527Z,20.42
2023-01-25T14:24:42.484Z,20.41
2023-01-25T14:25:42.437Z,20.40
2023-01-25T14:26:42.406Z,20.38
2023-01-25T14:27:42.365Z,20.39
2023-01-25T14:28:42.318Z,20.38
2023-01-25T14:29:42.331Z,20.38
2023-01-25T14:30:42.280Z,20.42
2023-01-25T14:31:42.238Z,20.47
2023-01-25T14:32:42.163Z,20.44
2023-01-25T14:33:42.112Z,20.46
2023-01-25T14:34:42.066Z,20.48
2023-01-25T14:35:43.189Z,20.51
2023-01-25T14:36:42.970Z,20.54
2023-01-25T14:37:41.925Z,20.54
2023-01-25T14:38:42.509Z,20.56
2023-01-25T14:39:41.842Z,20.55
2023-01-25T14:40:41.802Z,20.59
2023-01-25T14:41:43.807Z,20.60
2023-01-25T14:42:42.719Z,20.60
2023-01-25T14:43:41.671Z,20.59
2023-01-25T14:44:41.626Z,20.60
2023-01-25T14:45:41.610Z,20.60
2023-01-25T14:46:41.546Z,20.59
2023-01-25T14:47:45.277Z,20.61
2023-01-25T14:48:42.479Z,20.62
2023-01-25T14:49:41.424Z,20.62
2023-01-25T14:50:41.388Z,20.62
2023-01-25T14:51:41.345Z,20.61
2023-01-25T14:52:41.301Z,20.65
2023-01-25T14:53:41.279Z,20.64
2023-01-25T14:54:41.215Z,20.65
2023-01-25T14:55:41.194Z,20.66
2023-01-25T14:56:41.128Z,20.67
2023-01-25T14:57:41.098Z,20.66
2023-01-25T14:58:41.162Z,20.66
2023-01-25T14:59:41.031Z,20.65
2023-01-25T15:00:40.988Z,20.66
2023-01-25T15:01:40.942Z,20.67
2023-01-25T15:02:40.956Z,20.73
2023-01-25T15:03:40.866Z,20.74
2023-01-25T15:04:40.844Z,20.75
2023-01-25T15:05:40.786Z,20.77
2023-01-25T15:06:40.771Z,20.79
2023-01-25T15:07:40.723Z,20.79
2023-01-25T15:08:40.680Z,20.80
2023-01-25T15:09:40.649Z,20.86
2023-01-25T15:10:40.609Z,20.90
2023-01-25T15:11:40.581Z,20.91
2023-01-25T15:12:40.517Z,20.95
2023-01-25T15:13:40.492Z,20.97
2023-01-25T15:14:40.445Z,20.99
2023-01-25T15:15:40.401Z,21.04
2023-01-25T15:16:40.432Z,21.05
2023-01-25T15:17:40.354Z,21.20
2023-01-25T15:18:40.315Z,21.64
2023-01-25T15:19:40.251Z,21.49
2023-01-25T15:20:40.217Z,21.43
2023-01-25T15:21:40.167Z,21.46
2023-01-25T15:22:40.146Z,21.38
2023-01-25T15:23:40.090Z,21.40
2023-01-25T15:24:42.413Z,21.35
2023-01-25T15:25:40.023Z,21.34
2023-01-25T15:26:39.992Z,21.33
2023-01-25T15:27:39.958Z,21.29
2023-01-25T15:28:39.898Z,21.31
2023-01-25T15:29:39.888Z,21.29
2023-01-25T15:30:39.894Z,21.29
2023-01-25T15:31:39.815Z,21.20
2023-01-25T15:32:39.760Z,21.23
2023-01-25T15:33:39.728Z,21.26
2023-01-25T15:34:39.710Z,21.26
2023-01-25T15:35:39.651Z,21.23
2023-01-25T15:36:39.625Z,21.21
2023-01-25T15:37:39.591Z,21.24
2023-01-25T15:38:39.562Z,21.23
2023-01-25T15:39:39.531Z,21.24
2023-01-25T15:40:39.498Z,21.19
2023-01-25T15:41:39.458Z,21.15
2023-01-25T15:42:39.423Z,21.13
2023-01-25T15:43:39.387Z,21.19
2023-01-25T15:44:39.367Z,21.17
2023-01-25T15:45:39.374Z,21.20
2023-01-25T15:46:39.295Z,21.15
2023-01-25T15:47:39.268Z,21.09
2023-01-25T15:48:39.232Z,21.16
2023-01-25T15:49:39.200Z,21.18
2023-01-25T15:50:39.162Z,21.24
2023-01-25T15:51:39.118Z,21.24
2023-01-25T15:52:39.084Z,21.30
2023-01-25T15:53:39.047Z,21.32
2023-01-25T15:54:40.841Z,21.35
2023-01-25T15:55:39.984Z,21.36
2023-01-25T15:56:38.939Z,21.39
2023-01-25T15:57:38.910Z,21.42
2023-01-25T15:58:38.855Z,21.44
2023-01-25T15:59:38.857Z,21.44
2023-01-25T16:00:38.807Z,21.48
2023-01-25T16:01:38.754Z,21.49
2023-01-25T16:02:38.742Z,21.51
2023-01-25T16:03:38.684Z,21.52
2023-01-25T16:04:38.646Z,21.54
2023-01-25T16:05:38.620Z,21.53
2023-01-25T16:06:38.590Z,21.57
2023-01-25T16:07:38.552Z,21.59
2023-01-25T16:08:38.520Z,21.63
2023-01-25T16:09:38.498Z,21.65
2023-01-25T16:10:38.448Z,21.68
2023-01-25T16:11:38.410Z,21.69
2023-01-25T16:12:38.371Z,21.72
2023-01-25T16:13:38.332Z,21.73
2023-01-25T16:14:38.298Z,21.76
2023-01-25T16:15:38.270Z,21.78
2023-01-25T16:16:38.248Z,21.81
2023-01-25T16:17:38.203Z,21.84
2023-01-25T16:18:38.167Z,21.87
2023-01-25T16:19:38.123Z,21.89
2023-01-25T16:20:39.054Z,21.88
2023-01-25T16:21:38.099Z,21.93
2023-01-25T16:22:38.015Z,21.92
2023-01-25T16:23:37.991Z,21.95
2023-01-25T16:24:39.499Z,21.95
2023-01-25T16:25:37.913Z,21.97
2023-01-25T16:26:37.892Z,22.01
2023-01-25T16:27:37.857Z,22.02
2023-01-25T16:28:37.831Z,22.02
2023-01-25T16:29:37.793Z,22.04
2023-01-25T16:30:37.801Z,22.06
2023-01-25T16:31:37.885Z,22.06
2023-01-25T16:32:37.686Z,22.09
2023-01-25T16:33:37.648Z,22.09
2023-01-25T16:34:37.621Z,22.08
2023-01-25T16:35:37.609Z,22.10
2023-01-25T16:36:39.539Z,22.13
2023-01-25T16:37:37.536Z,22.15
2023-01-25T16:38:37.486Z,22.16
2023-01-25T16:39:37.450Z,22.21
2023-01-25T16:40:37.424Z,22.17
2023-01-25T16:41:37.380Z,22.20
2023-01-25T16:42:37.339Z,22.23
2023-01-25T16:43:42.612Z,22.24
2023-01-25T16:44:38.265Z,22.26
2023-01-25T16:45:37.227Z,22.24
2023-01-25T16:46:37.175Z,22.26
2023-01-25T16:47:37.146Z,22.28
2023-01-25T16:48:37.098Z,22.28
2023-01-25T16:49:37.063Z,22.28
2023-01-25T16:50:37.033Z,22.31
2023-01-25T16:51:36.987Z,22.34
2023-01-25T16:52:36.929Z,22.37
2023-01-25T16:53:36.918Z,22.34
2023-01-25T16:54:36.857Z,22.34
2023-01-25T16:55:36.819Z,22.33
2023-01-25T16:56:36.794Z,22.39
2023-01-25T16:57:36.762Z,22.38
2023-01-25T16:58:36.723Z,22.37
2023-01-25T16:59:36.698Z,22.44
2023-01-25T17:00:36.641Z,22.40
2023-01-25T17:01:36.614Z,22.41
2023-01-25T17:02:38.617Z,22.39
2023-01-25T17:03:36.522Z,22.40
2023-01-25T17:04:36.489Z,22.44
2023-01-25T17:05:36.456Z,22.47
2023-01-25T17:06:36.414Z,22.45
2023-01-25T17:07:36.381Z,22.47
2023-01-25T17:08:36.336Z,22.48
2023-01-25T17:09:36.313Z,22.50
2023-01-25T17:10:36.265Z,22.51
2023-01-25T17:11:36.230Z,22.52
2023-01-25T17:12:36.184Z,22.53
2023-01-25T17:13:36.149Z,22.52
2023-01-25T17:14:36.131Z,22.53
2023-01-25T17:15:36.108Z,22.54
2023-01-25T17:16:36.045Z,22.54
2023-01-25T17:17:36.016Z,22.58
2023-01-25T17:18:35.981Z,22.58
2023-01-25T17:19:35.941Z,22.58
2023-01-25T17:20:35.916Z,22.59
2023-01-25T17:21:35.885Z,22.63
2023-01-25T17:22:35.860Z,22.63
2023-01-25T17:23:35.813Z,22.61
2023-01-25T17:24:35.793Z,22.62